Time;durP1;ratioP1;P1;durP2;ratioP2;P2;SDS_P1;SDS_P2;PMS_P1;PMS_P2;Temp;Humidity;BMP_temperature;BMP_pressure;BME280_temperature;BME280_humidity;BME280_pressure;Samples;Min_cycle;Max_cycle;Signal;HPM_P1;HPM_P2
2022/03/14 00:01:38;;;;;;;11.50;8.43;;;;;;;3.09;77.58;100322.91;5105205;28;20032;-60
2022/03/14 00:04:04;;;;;;;12.68;9.00;;;;;;;3.11;78.02;100328.91;5105438;28;20351;-59
2022/03/14 00:06:29;;;;;;;11.68;8.63;;;;;;;3.11;78.01;100330.63;5105196;28;20024;-60
2022/03/14 00:08:57;;;;;;;16.05;9.35;;;;;;;3.19;77.46;100331.63;5090903;28;20043;-60
2022/03/14 00:11:24;;;;;;;12.10;9.27;;;;;;;3.09;77.94;100334.81;5084749;28;20087;-60
2022/03/14 00:13:50;;;;;;;13.43;8.88;;;;;;;3.09;77.55;100320.34;5085614;28;20214;-61
2022/03/14 00:16:25;;;;;;;14.43;9.23;;;;;;;3.09;77.94;100343.38;5121070;28;20065;-60
2022/03/14 00:18:53;;;;;;;11.68;8.15;;;;;;;3.18;78.29;100334.13;5104842;28;20024;-59
2022/03/14 00:21:24;;;;;;;13.23;9.25;;;;;;;2.79;77.76;100261.75;5104955;28;20272;-60
2022/03/14 00:23:53;;;;;;;11.80;8.02;;;;;;;3.23;77.23;100340.22;5104740;28;20229;-61
2022/03/14 00:26:22;;;;;;;12.05;8.93;;;;;;;3.08;77.91;100338.25;5103768;28;20035;-60
2022/03/14 00:28:48;;;;;;;14.20;8.70;;;;;;;3.17;77.27;100343.53;5103839;28;20197;-60
2022/03/14 00:31:14;;;;;;;12.95;8.68;;;;;;;3.14;77.98;100337.50;5104327;28;20073;-60
2022/03/14 00:33:40;;;;;;;11.68;8.85;;;;;;;3.12;78.01;100337.44;5103622;28;20082;-59
2022/03/14 00:36:08;;;;;;;13.05;9.15;;;;;;;3.06;77.94;100334.75;5104920;28;20368;-60
2022/03/14 00:38:38;;;;;;;12.85;8.85;;;;;;;3.09;77.69;100334.81;5104812;28;20047;-59
2022/03/14 00:41:04;;;;;;;12.85;8.65;;;;;;;2.87;77.46;100278.13;5104824;28;20024;-59
2022/03/14 00:43:30;;;;;;;11.95;8.68;;;;;;;3.06;77.54;100316.84;5104748;28;20038;-60
2022/03/14 00:45:56;;;;;;;14.00;8.52;;;;;;;3.15;77.66;100319.59;5104373;28;20325;-59
2022/03/14 00:48:22;;;;;;;14.20;9.05;;;;;;;3.18;77.34;100329.00;5104195;28;20073;-59
2022/03/14 00:50:47;;;;;;;12.48;8.35;;;;;;;3.15;76.76;100318.72;5103256;28;20024;-59
2022/03/14 00:53:13;;;;;;;11.30;8.32;;;;;;;3.09;77.27;100320.34;5120080;28;20024;-59
2022/03/14 00:55:38;;;;;;;10.30;8.38;;;;;;;3.14;76.94;100309.34;5083753;28;20066;-59
2022/03/14 00:58:04;;;;;;;12.10;8.38;;;;;;;3.17;76.86;100306.84;5084004;28;20040;-59
2022/03/14 01:00:29;;;;;;;11.25;8.27;;;;;;;3.08;76.68;100307.53;5083847;28;20020;-59
2022/03/14 01:02:55;;;;;;;10.60;8.30;;;;;;;3.19;76.42;100300.03;5088729;28;20073;-59
2022/03/14 01:05:21;;;;;;;11.88;7.97;;;;;;;3.14;76.82;100311.91;5104173;28;20024;-59
2022/03/14 01:07:46;;;;;;;13.52;8.15;;;;;;;3.20;76.59;100325.66;5103873;28;20068;-59
2022/03/14 01:10:13;;;;;;;12.05;8.57;;;;;;;3.18;76.73;100316.22;5104027;28;20054;-61
2022/03/14 01:12:39;;;;;;;9.52;7.55;;;;;;;3.20;76.96;100325.66;5104067;28;20317;-60
2022/03/14 01:15:05;;;;;;;12.52;8.60;;;;;;;3.08;76.58;100312.66;5104119;28;20065;-60
2022/03/14 01:17:30;;;;;;;12.52;8.60;;;;;;;3.18;76.82;100327.34;5104141;28;20209;-60
2022/03/14 01:19:56;;;;;;;12.18;9.20;;;;;;;3.31;76.19;100325.00;5103952;28;20024;-59
2022/03/14 01:22:21;;;;;;;13.15;9.48;;;;;;;3.28;76.15;100325.81;5102564;28;20052;-58
2022/03/14 01:24:47;;;;;;;14.07;9.60;;;;;;;3.24;76.34;100324.03;5103859;28;20024;-60
2022/03/14 01:27:13;;;;;;;18.13;11.15;;;;;;;3.28;76.01;100324.13;5103919;28;20032;-59
2022/03/14 01:29:38;;;;;;;19.60;11.25;;;;;;;3.31;76.01;100320.75;5103858;28;20024;-60
2022/03/14 01:32:06;;;;;;;12.68;10.25;;;;;;;3.31;76.40;100330.09;5103802;28;20028;-60
2022/03/14 01:34:32;;;;;;;13.68;10.73;;;;;;;3.31;75.87;100307.06;5103795;28;20073;-60
2022/03/14 01:36:58;;;;;;;13.70;9.68;;;;;;;3.37;75.92;100312.31;5103723;28;20032;-59
2022/03/14 01:39:24;;;;;;;13.93;9.35;;;;;;;3.41;75.40;100311.53;5103706;28;20031;-60
2022/03/14 01:41:51;;;;;;;11.70;9.02;;;;;;;3.31;76.08;100312.19;5102481;28;20309;-59
2022/03/14 01:44:17;;;;;;;15.23;8.95;;;;;;;3.40;75.21;100322.63;5102730;28;20100;-61
2022/03/14 01:46:43;;;;;;;14.23;8.63;;;;;;;3.44;75.17;100326.97;5102392;28;20020;-60
2022/03/14 01:49:09;;;;;;;12.40;9.07;;;;;;;3.47;75.36;100321.03;5103665;28;20020;-60
2022/03/14 01:51:35;;;;;;;12.63;8.73;;;;;;;3.42;75.22;100320.94;5103601;28;20016;-58
2022/03/14 01:54:01;;;;;;;11.55;8.43;;;;;;;3.41;75.57;100325.19;5103223;28;20566;-60
2022/03/14 01:56:28;;;;;;;12.15;8.25;;;;;;;3.37;75.91;100318.28;5092190;28;20024;-60
2022/03/14 01:58:54;;;;;;;10.98;8.77;;;;;;;3.44;75.26;100326.97;5084324;28;20216;-59
2022/03/14 02:01:20;;;;;;;12.80;8.75;;;;;;;3.37;74.97;100338.78;5103315;28;20224;-59
2022/03/14 02:03:50;;;;;;;11.00;8.45;;;;;;;3.44;75.61;100335.50;5103554;28;20024;-61
2022/03/14 02:06:17;;;;;;;11.15;7.93;;;;;;;3.39;75.56;100333.69;5103370;28;20431;-61
2022/03/14 02:08:43;;;;;;;13.65;9.57;;;;;;;3.40;75.39;100327.72;5103224;28;20091;-61
2022/03/14 02:11:08;;;;;;;11.60;8.98;;;;;;;3.41;75.43;100327.75;5103383;28;20044;-61
2022/03/14 02:13:34;;;;;;;11.35;8.85;;;;;;;3.40;74.97;100325.16;5103345;28;20036;-59
2022/03/14 02:16:00;;;;;;;10.32;8.02;;;;;;;3.45;74.89;100333.81;5103024;28;20027;-61
2022/03/14 02:18:25;;;;;;;11.55;7.88;;;;;;;3.41;75.58;100342.25;5102275;28;20262;-61
2022/03/14 02:20:51;;;;;;;10.95;8.13;;;;;;;3.39;75.32;100328.56;5099389;28;20035;-61
2022/03/14 02:23:17;;;;;;;12.40;8.35;;;;;;;3.43;75.73;100343.16;5099354;28;20309;-61
2022/03/14 02:25:51;;;;;;;10.57;8.00;;;;;;;3.37;76.02;100350.72;5102340;28;20035;-62
2022/03/14 02:28:22;;;;;;;10.90;8.35;;;;;;;3.37;76.04;100351.56;5099763;28;20106;-61
2022/03/14 02:30:52;;;;;;;12.50;8.20;;;;;;;3.42;75.70;100349.09;5101168;28;20024;-61
2022/03/14 02:33:18;;;;;;;11.25;8.27;;;;;;;3.42;75.74;100352.53;5099797;28;20021;-62
2022/03/14 02:35:44;;;;;;;12.15;8.45;;;;;;;3.45;75.82;100346.63;5102177;28;20043;-61
2022/03/14 02:38:16;;;;;;;13.27;8.27;;;;;;;3.38;76.27;100344.78;5102477;28;20023;-60
2022/03/14 02:40:45;;;;;;;13.00;8.18;;;;;;;3.41;76.51;100347.38;5103289;28;20035;-59
2022/03/14 02:43:15;;;;;;;11.45;8.65;;;;;;;3.40;76.59;100349.06;5092175;28;20038;-59
2022/03/14 02:45:42;;;;;;;12.77;9.00;;;;;;;3.34;76.97;100348.97;5101456;28;20217;-60
2022/03/14 02:48:07;;;;;;;12.48;8.52;;;;;;;3.37;77.02;100355.84;5101352;28;20028;-59
2022/03/14 02:50:34;;;;;;;11.70;8.25;;;;;;;3.28;77.11;100357.38;5101865;28;20030;-59
2022/03/14 02:53:00;;;;;;;12.52;8.73;;;;;;;3.26;77.21;100364.19;5102850;28;20042;-59
2022/03/14 02:55:26;;;;;;;12.13;8.10;;;;;;;3.28;77.32;100362.50;5098348;28;20020;-59
2022/03/14 02:57:52;;;;;;;12.70;8.27;;;;;;;3.30;76.95;100359.13;5086451;28;20032;-59
2022/03/14 03:00:18;;;;;;;11.18;8.57;;;;;;;3.33;77.16;100360.03;5086103;28;20059;-59
2022/03/14 03:02:43;;;;;;;10.55;8.50;;;;;;;3.31;77.19;100363.38;5086272;28;20039;-59
2022/03/14 03:05:09;;;;;;;11.70;8.48;;;;;;;3.26;76.79;100341.16;5086199;28;20024;-59
2022/03/14 03:07:39;;;;;;;13.20;8.35;;;;;;;3.25;76.91;100344.53;5089480;28;20053;-60
2022/03/14 03:10:06;;;;;;;13.40;8.60;;;;;;;3.29;77.05;100353.13;5106544;28;20341;-59
2022/03/14 03:12:37;;;;;;;14.50;8.77;;;;;;;3.33;76.82;100357.47;5106467;28;20354;-59
2022/03/14 03:15:04;;;;;;;10.60;8.20;;;;;;;3.39;76.86;100361.84;5106535;28;20255;-59
2022/03/14 03:17:29;;;;;;;11.68;8.07;;;;;;;3.34;76.66;100361.75;5106360;28;20032;-59
2022/03/14 03:19:55;;;;;;;12.90;8.77;;;;;;;3.31;77.15;100369.38;5106184;28;20316;-59
2022/03/14 03:22:20;;;;;;;11.90;8.30;;;;;;;3.34;76.89;100366.88;5104951;28;20316;-59
2022/03/14 03:24:46;;;;;;;12.35;8.73;;;;;;;3.30;76.60;100372.78;5106185;28;20089;-60
2022/03/14 03:27:11;;;;;;;11.57;8.38;;;;;;;3.23;76.50;100361.53;5106175;28;20024;-59
2022/03/14 03:29:37;;;;;;;12.18;8.48;;;;;;;3.25;77.13;100364.13;5106031;28;20024;-60
2022/03/14 03:32:03;;;;;;;11.30;8.80;;;;;;;3.21;77.14;100378.56;5105798;28;20035;-60
2022/03/14 03:34:28;;;;;;;11.80;8.50;;;;;;;3.27;77.26;100383.81;5105844;28;20043;-60
2022/03/14 03:36:54;;;;;;;11.80;8.82;;;;;;;3.27;76.74;100381.25;5106085;28;20317;-59
2022/03/14 03:39:19;;;;;;;13.27;9.65;;;;;;;3.25;77.60;100379.47;5105857;28;20024;-59
2022/03/14 03:41:45;;;;;;;16.35;9.32;;;;;;;3.32;77.23;100378.81;5105751;28;20122;-60
2022/03/14 03:44:10;;;;;;;14.45;10.05;;;;;;;3.32;76.82;100377.91;5105667;28;20034;-59
2022/03/14 03:46:36;;;;;;;16.45;9.70;;;;;;;3.35;77.69;100378.84;5105691;28;20034;-59
2022/03/14 03:49:03;;;;;;;12.77;9.35;;;;;;;2.96;77.41;100323.47;5104505;28;20016;-59
2022/03/14 03:51:28;;;;;;;13.60;9.20;;;;;;;3.30;77.10;100372.78;5105632;28;20016;-60
2022/03/14 03:53:54;;;;;;;13.00;9.43;;;;;;;3.37;77.03;100384.00;5102281;28;20101;-59
2022/03/14 03:56:19;;;;;;;16.40;9.35;;;;;;;3.37;76.82;100384.84;5085349;28;20026;-60
2022/03/14 03:58:45;;;;;;;12.63;9.45;;;;;;;3.39;77.53;100384.88;5085183;28;20024;-60
2022/03/14 04:01:12;;;;;;;13.75;9.93;;;;;;;3.40;76.80;100391.75;5084988;28;20031;-59
2022/03/14 04:03:37;;;;;;;16.05;10.25;;;;;;;3.42;76.76;100384.94;5085240;28;20078;-59
2022/03/14 04:06:03;;;;;;;13.25;10.43;;;;;;;3.39;76.63;100390.00;5084435;28;20021;-60
2022/03/14 04:08:30;;;;;;;12.52;9.18;;;;;;;3.40;77.00;100399.41;5095183;28;20032;-59
2022/03/14 04:10:58;;;;;;;15.60;9.65;;;;;;;3.45;77.32;100395.25;5105386;28;20102;-59
2022/03/14 04:13:26;;;;;;;15.50;9.70;;;;;;;3.40;77.06;100376.38;5105062;28;20119;-60
2022/03/14 04:15:54;;;;;;;17.13;11.40;;;;;;;3.37;77.36;100392.53;5105095;28;20077;-60
2022/03/14 04:18:25;;;;;;;14.23;9.95;;;;;;;3.11;77.39;100341.69;5105019;28;20024;-59
2022/03/14 04:20:51;;;;;;;13.52;9.52;;;;;;;3.32;77.59;100391.59;5104913;28;20117;-59
2022/03/14 04:23:17;;;;;;;16.80;10.48;;;;;;;3.27;77.16;100370.16;5104946;28;20028;-60
2022/03/14 04:25:44;;;;;;;17.33;10.70;;;;;;;3.48;76.81;100390.19;5104848;28;20086;-60
2022/03/14 04:28:14;;;;;;;17.35;10.60;;;;;;;3.43;76.79;100396.91;5104760;28;20198;-60
2022/03/14 04:30:39;;;;;;;17.95;10.52;;;;;;;3.50;77.24;100391.06;5104843;28;20038;-59
2022/03/14 04:33:07;;;;;;;17.45;11.60;;;;;;;3.51;76.84;100389.41;5103427;28;20194;-60
2022/03/14 04:35:32;;;;;;;17.13;10.90;;;;;;;3.47;76.70;100398.69;5104609;28;20290;-60
2022/03/14 04:37:58;;;;;;;17.25;11.40;;;;;;;3.48;77.19;100395.31;5104566;28;20046;-60
2022/03/14 04:40:23;;;;;;;15.20;10.60;;;;;;;3.48;76.48;100415.78;5103476;28;20024;-60
2022/03/14 04:42:49;;;;;;;15.90;9.73;;;;;;;3.45;76.60;100408.91;5104296;28;20028;-60
2022/03/14 04:45:15;;;;;;;14.73;10.52;;;;;;;3.50;76.79;100401.31;5104470;28;20221;-59
2022/03/14 04:47:41;;;;;;;16.77;10.32;;;;;;;3.36;76.96;100400.19;5104353;28;20020;-59
2022/03/14 04:50:06;;;;;;;12.88;8.88;;;;;;;3.46;76.57;100402.09;5104165;28;20313;-60
2022/03/14 04:52:32;;;;;;;15.45;9.20;;;;;;;3.37;76.89;100405.34;5104129;28;20039;-60
2022/03/14 04:54:58;;;;;;;12.77;8.30;;;;;;;3.28;76.33;100408.59;5104059;28;20047;-60
2022/03/14 04:57:24;;;;;;;13.18;9.00;;;;;;;3.34;76.76;100412.09;5104249;28;20081;-58
2022/03/14 04:59:50;;;;;;;13.50;8.95;;;;;;;3.39;76.54;100411.38;5103922;28;20024;-58
2022/03/14 05:02:22;;;;;;;11.73;8.32;;;;;;;3.49;75.77;100417.50;5104135;28;20126;-55
2022/03/14 05:04:49;;;;;;;14.00;7.80;;;;;;;3.26;75.57;100394.03;5103701;28;20055;-55
2022/03/14 05:07:14;;;;;;;10.93;7.72;;;;;;;3.38;75.18;100411.34;5103319;28;20103;-57
2022/03/14 05:09:40;;;;;;;11.10;7.63;;;;;;;3.48;74.62;100413.25;5103614;28;20075;-58
2022/03/14 05:12:06;;;;;;;10.30;7.03;;;;;;;3.38;74.50;100413.91;5103807;28;20039;-60
2022/03/14 05:14:32;;;;;;;12.98;6.63;;;;;;;3.27;74.29;100418.78;5103819;28;20039;-63
2022/03/14 05:16:57;;;;;;;9.68;7.05;;;;;;;3.39;74.00;100416.50;5103539;28;20024;-59
2022/03/14 05:19:23;;;;;;;9.77;6.88;;;;;;;3.24;73.64;100426.41;5102866;28;20314;-60
2022/03/14 05:21:49;;;;;;;8.57;6.55;;;;;;;3.30;73.65;100421.41;5102078;28;20030;-60
2022/03/14 05:24:14;;;;;;;9.13;6.10;;;;;;;3.22;72.35;100425.50;5102784;28;20028;-59
2022/03/14 05:26:40;;;;;;;7.05;5.53;;;;;;;3.40;71.90;100425.00;5102885;28;20228;-58
2022/03/14 05:29:06;;;;;;;9.93;6.07;;;;;;;3.38;71.89;100432.66;5102840;28;20020;-60
2022/03/14 05:31:31;;;;;;;8.02;6.05;;;;;;;3.47;72.08;100442.22;5095929;28;20043;-60
2022/03/14 05:33:57;;;;;;;7.70;6.13;;;;;;;3.44;71.77;100439.63;5102726;28;20020;-59
2022/03/14 05:36:22;;;;;;;6.35;4.47;;;;;;;3.16;67.49;100439.03;5102466;28;20024;-60
2022/03/14 05:38:48;;;;;;;6.40;4.65;;;;;;;3.28;67.14;100444.41;5103595;28;20027;-60
2022/03/14 05:41:14;;;;;;;6.47;4.32;;;;;;;3.36;64.94;100447.13;5102272;28;20039;-60
2022/03/14 05:43:39;;;;;;;5.05;2.88;;;;;;;3.32;62.24;100450.47;5103262;28;20023;-60
2022/03/14 05:46:06;;;;;;;5.32;2.88;;;;;;;3.33;61.30;100459.88;5103063;28;20202;-60
2022/03/14 05:48:35;;;;;;;4.20;2.95;;;;;;;3.49;61.39;100450.78;5103041;28;20030;-59
2022/03/14 05:51:04;;;;;;;5.00;2.70;;;;;;;3.42;59.48;100454.06;5102992;28;20032;-60
2022/03/14 05:53:31;;;;;;;5.00;2.55;;;;;;;3.23;58.75;100455.38;5102570;28;20239;-60
2022/03/14 05:55:58;;;;;;;3.00;2.13;;;;;;;3.35;57.54;100452.22;5084201;28;20036;-60
2022/03/14 05:58:24;;;;;;;7.93;2.83;;;;;;;3.45;57.89;100456.72;5082670;28;20423;-59
2022/03/14 06:00:52;;;;;;;5.93;2.70;;;;;;;3.45;57.14;100442.19;5081415;28;20033;-60
2022/03/14 06:03:19;;;;;;;4.25;2.53;;;;;;;3.54;57.81;100444.06;5082782;28;20025;-61
2022/03/14 06:05:50;;;;;;;3.60;2.22;;;;;;;3.77;57.17;100448.78;5081671;28;20145;-60
2022/03/14 06:08:17;;;;;;;3.65;2.45;;;;;;;3.50;55.35;100451.66;5091679;28;20336;-60
2022/03/14 06:10:45;;;;;;;3.60;2.30;;;;;;;3.19;54.26;100444.25;5103000;28;20150;-61
2022/03/14 06:13:15;;;;;;;5.53;2.05;;;;;;;3.26;54.11;100458.00;5102095;28;20368;-59
2022/03/14 06:15:45;;;;;;;3.60;2.05;;;;;;;3.34;54.65;100447.94;5101543;28;20095;-58
2022/03/14 06:18:11;;;;;;;3.55;1.98;;;;;;;3.15;53.67;100451.78;5103055;28;20028;-60
2022/03/14 06:20:37;;;;;;;5.88;2.10;;;;;;;3.33;53.65;100462.41;5091257;28;20032;-61
2022/03/14 06:23:02;;;;;;;4.47;2.50;;;;;;;3.55;54.10;100450.03;5089576;28;20028;-60
2022/03/14 06:25:28;;;;;;;4.57;1.92;;;;;;;3.73;53.42;100446.97;5101375;28;20023;-60
2022/03/14 06:27:54;;;;;;;4.13;2.40;;;;;;;4.40;52.12;100454.13;5102513;28;20027;-59
2022/03/14 06:30:20;;;;;;;4.57;2.10;;;;;;;4.99;50.17;100454.16;5103119;28;20028;-60
2022/03/14 06:32:49;;;;;;;5.47;2.33;;;;;;;4.66;49.71;100449.44;5106623;28;20217;-59
2022/03/14 06:35:17;;;;;;;4.68;2.15;;;;;;;4.51;49.04;100460.28;5106463;28;20011;-60
2022/03/14 06:37:43;;;;;;;6.30;2.50;;;;;;;4.78;50.30;100464.97;5103904;28;20016;-59
2022/03/14 06:40:10;;;;;;;4.90;2.70;;;;;;;4.66;49.73;100472.50;5106236;28;20046;-60
2022/03/14 06:42:38;;;;;;;5.85;2.35;;;;;;;4.64;49.41;100462.19;5103366;28;20284;-60
2022/03/14 06:45:04;;;;;;;4.15;1.90;;;;;;;4.45;48.87;100471.31;5106660;28;20043;-59
2022/03/14 06:47:32;;;;;;;3.00;1.75;;;;;;;4.25;48.45;100473.56;5106372;28;20054;-60
2022/03/14 06:49:58;;;;;;;4.72;2.25;;;;;;;4.66;49.07;100467.38;5106445;28;20016;-60
2022/03/14 06:52:23;;;;;;;3.13;2.10;;;;;;;4.52;48.35;100487.69;5106171;28;20027;-60
2022/03/14 06:54:49;;;;;;;2.38;1.60;;;;;;;4.35;48.63;100477.13;5103137;28;20079;-60
2022/03/14 06:57:15;;;;;;;5.22;1.98;;;;;;;4.61;49.58;100485.25;5106338;28;20185;-59
2022/03/14 06:59:40;;;;;;;3.72;1.90;;;;;;;4.40;48.62;100492.59;5106330;28;20038;-60
2022/03/14 07:02:07;;;;;;;5.57;1.73;;;;;;;4.42;48.16;100475.53;5104951;28;20190;-60
2022/03/14 07:04:34;;;;;;;3.80;1.92;;;;;;;4.09;47.15;100482.69;5104413;28;20028;-59
2022/03/14 07:07:02;;;;;;;2.55;1.60;;;;;;;3.85;47.24;100490.78;5104723;28;20061;-59
2022/03/14 07:09:28;;;;;;;4.00;1.83;;;;;;;3.60;48.00;100485.16;5105865;28;20024;-60
2022/03/14 07:11:53;;;;;;;6.22;2.10;;;;;;;3.78;47.55;100483.81;5106358;28;20094;-60
2022/03/14 07:14:20;;;;;;;3.70;2.35;;;;;;;3.97;48.20;100485.84;5106250;28;20054;-62
2022/03/14 07:16:46;;;;;;;3.50;1.77;;;;;;;3.98;47.49;100487.59;5106341;28;20134;-60
2022/03/14 07:19:12;;;;;;;2.92;2.00;;;;;;;4.04;46.59;100488.56;5106399;28;20419;-60
2022/03/14 07:21:38;;;;;;;4.68;1.70;;;;;;;4.07;47.96;100474.09;5086658;28;20028;-61
2022/03/14 07:24:04;;;;;;;3.85;1.95;;;;;;;4.10;46.65;100484.38;5090862;28;20026;-61
2022/03/14 07:26:29;;;;;;;4.75;2.00;;;;;;;4.23;46.93;100489.75;5106260;28;20028;-60
2022/03/14 07:28:55;;;;;;;3.00;1.58;;;;;;;4.35;46.35;100481.38;5106247;28;20024;-59
2022/03/14 07:31:21;;;;;;;5.47;2.15;;;;;;;4.65;46.53;100484.47;5105716;28;20020;-59
2022/03/14 07:33:49;;;;;;;4.75;2.10;;;;;;;4.02;46.42;100488.53;5105481;28;20264;-59
2022/03/14 07:36:15;;;;;;;2.80;2.00;;;;;;;4.03;46.83;100482.53;5103848;28;20077;-61
2022/03/14 07:38:41;;;;;;;2.97;1.90;;;;;;;4.24;47.56;100476.94;5105072;28;20239;-60
2022/03/14 07:41:08;;;;;;;3.58;1.95;;;;;;;4.36;47.80;100480.56;5104962;28;20027;-60
2022/03/14 07:43:35;;;;;;;7.03;2.10;;;;;;;4.33;47.02;100476.22;5102717;28;20185;-59
2022/03/14 07:46:01;;;;;;;3.95;1.92;;;;;;;4.56;45.98;100474.06;5105213;28;20035;-59
2022/03/14 07:48:27;;;;;;;10.68;2.42;;;;;;;4.90;46.52;100478.84;5104707;28;20023;-60
2022/03/14 07:50:53;;;;;;;4.88;2.30;;;;;;;5.09;47.02;100462.84;5104834;28;20024;-60
2022/03/14 07:53:19;;;;;;;5.53;1.80;;;;;;;4.72;45.73;100466.59;5105110;28;20089;-60
2022/03/14 07:55:44;;;;;;;5.22;2.25;;;;;;;4.81;45.84;100465.03;5100810;28;20333;-59
2022/03/14 07:58:10;;;;;;;15.60;7.60;;;;;;;5.21;46.70;100467.28;5105306;28;20042;-59
2022/03/14 08:00:36;;;;;;;7.60;2.55;;;;;;;5.19;46.63;100462.13;5104933;28;20039;-59
2022/03/14 08:03:01;;;;;;;4.95;2.50;;;;;;;5.48;47.00;100465.91;5104960;28;20036;-60
2022/03/14 08:05:27;;;;;;;4.30;2.33;;;;;;;5.46;46.63;100470.19;5101962;28;20069;-60
2022/03/14 08:07:54;;;;;;;3.40;2.08;;;;;;;5.33;46.50;100418.66;5104620;28;20028;-60
2022/03/14 08:10:20;;;;;;;4.32;2.40;;;;;;;5.75;46.43;100470.50;5104365;28;20024;-60
2022/03/14 08:12:54;;;;;;;3.15;2.17;;;;;;;5.21;46.71;100410.78;5104649;28;20031;-60
2022/03/14 08:15:29;;;;;;;5.50;2.30;;;;;;;5.53;45.50;100462.56;5104706;28;20040;-60
2022/03/14 08:18:07;;;;;;;6.65;2.47;;;;;;;5.47;46.11;100435.91;5104740;28;20028;-59
2022/03/14 08:20:33;;;;;;;5.47;2.50;;;;;;;5.68;45.01;100467.00;5101501;28;20024;-59
2022/03/14 08:23:02;;;;;;;5.93;2.40;;;;;;;5.68;45.74;100467.00;5102310;28;20281;-61
2022/03/14 08:25:28;;;;;;;5.63;2.13;;;;;;;5.45;45.34;100459.03;5105002;28;20024;-59
2022/03/14 08:27:53;;;;;;;4.82;2.05;;;;;;;5.74;44.99;100468.78;5104994;28;20039;-60
2022/03/14 08:30:23;;;;;;;4.72;2.78;;;;;;;5.62;46.65;100450.66;5104535;28;20024;-60
2022/03/14 08:32:51;;;;;;;3.15;2.00;;;;;;;5.72;45.19;100460.19;5102170;28;20028;-59
2022/03/14 08:35:19;;;;;;;4.55;1.95;;;;;;;6.27;44.70;100462.50;5104395;28;20055;-59
2022/03/14 08:37:45;;;;;;;4.40;1.90;;;;;;;6.60;43.36;100457.56;5101917;28;20256;-60
2022/03/14 08:40:14;;;;;;;4.25;2.10;;;;;;;7.35;42.21;100445.13;5104294;28;20031;-59
2022/03/14 08:42:42;;;;;;;4.70;2.50;;;;;;;7.12;42.51;100439.88;5101565;28;20055;-59
2022/03/14 08:45:08;;;;;;;4.55;1.95;;;;;;;6.67;44.13;100455.09;5104222;28;20024;-60
2022/03/14 08:47:35;;;;;;;5.32;2.10;;;;;;;6.73;43.33;100444.81;5103980;28;20270;-59
2022/03/14 08:50:02;;;;;;;3.58;1.80;;;;;;;6.57;43.73;100445.56;5104121;28;20251;-60
2022/03/14 08:52:30;;;;;;;3.97;2.17;;;;;;;6.59;43.96;100454.16;5102404;28;20012;-60
2022/03/14 08:54:56;;;;;;;5.00;2.33;;;;;;;6.48;43.82;100443.78;5101086;28;20309;-60
2022/03/14 08:57:21;;;;;;;4.38;1.90;;;;;;;6.54;43.88;100445.53;5104054;28;20101;-59
2022/03/14 08:59:47;;;;;;;2.30;1.70;;;;;;;6.28;44.55;100443.63;5103891;28;20036;-59
2022/03/14 09:02:13;;;;;;;3.47;1.83;;;;;;;6.56;43.74;100436.97;5102749;28;20047;-59
2022/03/14 09:04:38;;;;;;;3.83;2.15;;;;;;;7.24;42.95;100434.78;5101743;28;20024;-60
2022/03/14 09:07:05;;;;;;;4.88;1.95;;;;;;;7.97;42.44;100432.44;5103642;28;20240;-59
2022/03/14 09:09:31;;;;;;;6.53;2.10;;;;;;;8.61;40.26;100430.75;5102511;28;20366;-60
2022/03/14 09:11:58;;;;;;;4.32;2.05;;;;;;;8.93;38.90;100429.81;5103660;28;20059;-59
2022/03/14 09:14:24;;;;;;;6.03;3.85;;;;;;;8.07;40.28;100425.56;5103509;28;20081;-59
2022/03/14 09:16:50;;;;;;;6.30;2.80;;;;;;;8.04;41.36;100436.72;5103544;28;20023;-59
2022/03/14 09:19:16;;;;;;;4.00;2.10;;;;;;;7.90;39.99;100436.72;5103595;28;20062;-60
2022/03/14 09:21:41;;;;;;;2.38;1.88;;;;;;;7.45;41.39;100433.16;5100725;28;20036;-59
2022/03/14 09:24:07;;;;;;;3.50;2.00;;;;;;;8.33;40.68;100437.63;5101338;28;20024;-60
2022/03/14 09:26:35;;;;;;;4.10;2.10;;;;;;;8.01;41.64;100433.28;5103452;28;20023;-59
2022/03/14 09:29:02;;;;;;;3.92;2.33;;;;;;;7.93;41.42;100430.69;5103365;28;20231;-59
2022/03/14 09:31:27;;;;;;;5.22;2.28;;;;;;;7.59;41.94;100428.88;5103227;28;20197;-59
2022/03/14 09:33:53;;;;;;;3.45;2.53;;;;;;;7.36;42.87;100428.81;5103239;28;20020;-60
2022/03/14 09:36:19;;;;;;;3.38;2.33;;;;;;;6.51;42.79;100440.38;5103341;28;20032;-59
2022/03/14 09:38:45;;;;;;;2.08;1.60;;;;;;;6.64;42.93;100441.31;5102165;28;20096;-59
2022/03/14 09:41:15;;;;;;;6.55;2.35;;;;;;;6.59;44.26;100448.16;5102397;28;20061;-60
2022/03/14 09:43:40;;;;;;;4.88;2.70;;;;;;;6.48;42.95;100441.19;5102582;28;20324;-61
2022/03/14 09:46:08;;;;;;;4.55;2.17;;;;;;;6.26;43.07;100436.75;5102914;28;20027;-59
2022/03/14 09:48:36;;;;;;;2.80;1.90;;;;;;;6.31;42.98;100441.06;5103202;28;20031;-60
2022/03/14 09:51:03;;;;;;;4.00;1.98;;;;;;;6.39;43.90;100438.56;5100497;28;20040;-60
2022/03/14 09:53:30;;;;;;;13.02;3.17;;;;;;;6.66;44.92;100442.19;5102999;28;20110;-60
2022/03/14 09:55:56;;;;;;;5.65;3.30;;;;;;;6.69;43.91;100435.34;5101664;28;20265;-60
2022/03/14 09:58:22;;;;;;;3.33;2.08;;;;;;;6.53;43.10;100431.81;5102974;28;20240;-59
2022/03/14 10:00:49;;;;;;;7.25;2.67;;;;;;;6.44;44.66;100375.16;5103139;28;20061;-59
2022/03/14 10:03:16;;;;;;;5.00;2.10;;;;;;;6.79;45.36;100430.28;5103397;28;20031;-59
2022/03/14 10:05:44;;;;;;;3.17;2.00;;;;;;;6.78;43.69;100446.56;5096081;28;20033;-59
2022/03/14 10:08:10;;;;;;;2.83;1.90;;;;;;;6.52;42.82;100435.22;5095018;28;20091;-59
2022/03/14 10:10:39;;;;;;;2.50;2.13;;;;;;;6.55;43.18;100432.66;5107322;28;20321;-59
2022/03/14 10:13:06;;;;;;;3.28;1.70;;;;;;;6.48;43.00;100438.63;5107522;28;20028;-59
2022/03/14 10:15:34;;;;;;;2.97;2.40;;;;;;;6.52;43.90;100436.94;5107462;28;20020;-59
2022/03/14 10:18:00;;;;;;;2.67;2.00;;;;;;;6.38;43.05;100430.00;5107541;28;20208;-60
2022/03/14 10:20:25;;;;;;;4.28;2.20;;;;;;;6.28;44.33;100389.59;5105946;28;20065;-60
2022/03/14 10:22:52;;;;;;;11.63;2.70;;;;;;;6.41;44.46;100421.41;5106971;28;20020;-59
2022/03/14 10:25:20;;;;;;;4.20;2.28;;;;;;;6.15;45.45;100372.38;5106999;28;20019;-60
2022/03/14 10:27:57;;;;;;;4.18;2.65;;;;;;;6.23;44.13;100419.59;5107156;28;20202;-59
2022/03/14 10:30:25;;;;;;;5.90;2.70;;;;;;;6.14;44.29;100434.91;5123095;28;20047;-59
2022/03/14 10:32:56;;;;;;;2.03;1.60;;;;;;;6.10;43.40;100423.75;5107144;28;20024;-59
2022/03/14 10:35:22;;;;;;;2.87;1.93;;;;;;;6.03;44.24;100427.97;5107077;28;20194;-59
2022/03/14 10:38:03;;;;;;;6.38;3.45;;;;;;;5.86;43.73;100378.09;5107024;28;20271;-59
2022/03/14 10:40:43;;;;;;;3.35;1.63;;;;;;;6.15;44.45;100427.22;5107089;28;20028;-59
2022/03/14 10:43:22;;;;;;;3.35;1.52;;;;;;;5.44;43.93;100369.09;5107254;28;20305;-59
2022/03/14 10:45:48;;;;;;;4.00;1.80;;;;;;;5.89;44.46;100424.38;5107158;28;20042;-59
2022/03/14 10:48:13;;;;;;;5.18;1.85;;;;;;;6.02;44.90;100410.81;5106927;28;20383;-60
2022/03/14 10:50:41;;;;;;;5.07;1.88;;;;;;;6.08;45.06;100415.16;5106932;28;20035;-59
2022/03/14 10:53:19;;;;;;;6.15;2.10;;;;;;;6.14;45.34;100409.22;5105517;28;20028;-60
2022/03/14 10:55:49;;;;;;;3.42;2.55;;;;;;;6.05;44.37;100413.41;5106536;28;20061;-59
2022/03/14 10:58:16;;;;;;;5.43;2.72;;;;;;;6.11;44.46;100415.19;5106745;28;20360;-59
2022/03/14 11:00:52;;;;;;;2.92;1.98;;;;;;;5.73;44.88;100355.69;5088380;28;20036;-59
2022/03/14 11:03:28;;;;;;;8.02;1.85;;;;;;;6.12;44.98;100413.50;5106732;28;20083;-59
2022/03/14 11:05:58;;;;;;;4.65;2.00;;;;;;;5.47;44.52;100340.88;5106303;28;20344;-60
2022/03/14 11:08:28;;;;;;;3.55;2.00;;;;;;;6.01;44.79;100403.97;5106325;28;20044;-60
2022/03/14 11:10:54;;;;;;;4.45;1.98;;;;;;;5.96;44.80;100408.16;5106448;28;20339;-59
2022/03/14 11:13:20;;;;;;;3.30;1.90;;;;;;;6.11;45.37;100415.19;5106351;28;20027;-60
2022/03/14 11:15:46;;;;;;;4.68;2.30;;;;;;;6.01;45.56;100416.84;5104722;28;20024;-58
2022/03/14 11:18:11;;;;;;;2.95;2.20;;;;;;;6.15;45.14;100408.38;5106373;28;20020;-59
2022/03/14 11:20:38;;;;;;;2.50;1.77;;;;;;;6.22;45.65;100407.56;5098560;28;20024;-59
2022/03/14 11:23:05;;;;;;;3.90;2.03;;;;;;;6.19;45.40;100418.69;5102019;28;20365;-59
2022/03/14 11:25:32;;;;;;;3.28;2.13;;;;;;;6.27;47.08;100416.19;5106312;28;20020;-59
2022/03/14 11:27:58;;;;;;;4.72;2.10;;;;;;;6.32;45.47;100413.66;5106053;28;20309;-58